Aviation Digital Data Service (ADDS)

Output produced by METARs form (1130 UTC 25 June 2019)
found at http://www.aviationweather.gov/metar/data/
 
LECO 251100Z VRB03KT 9999 SCT042 24/11 Q1016 NOSIG
TAF LECO 250800Z 2509/2609 VRB05KT 9999 FEW030 TX22/2513Z TN16/2603Z 
     PROB40 
     TEMPO 2513/2517 35010KT 
     TEMPO 2522/2602 3000 RA SHRA SCT030TCU 
     TEMPO 2522/2607 3000 BR BCFG 
     PROB30 
     TEMPO 2601/2606 0800 BCFG BKN010
       
LEAB 251100Z VRB04KT CAVOK 29/10 Q1018 NOSIG
TAF LEAB 251100Z 2512/2521 15010KT CAVOK 
     TEMPO 2512/2514 VRB05KT
       
LERI 251100Z VRB02KT CAVOK 30/17 Q1015 NOSIG
TAF LERI 251100Z 2512/2521 11010KT CAVOK
       
LEAL 251100Z 10012KT 9999 FEW025 27/19 Q1016 NOSIG
TAF LEAL 251100Z 2512/2612 15010KT 9999 FEW020 TX28/2512Z TN20/2606Z 
     BECMG 2519/2521 VRB05KT 
     PROB30 
     TEMPO 2524/2606 23010KT 3000 BR BKN010
       
LEAM 251100Z 21009KT 170V250 9999 FEW015 25/20 Q1016
TAF LEAM 250800Z 2509/2609 21010KT CAVOK TX27/2513Z TN20/2605Z 
     BECMG 2518/2520 VRB02KT 
     PROB40 
     TEMPO 2522/2609 3000 BR BKN006
       
LEGA 251100Z 30004KT CAVOK 31/13 Q1017
TAF LEGA 251100Z 2512/2521 17012KT CAVOK
       
LEAS 251111Z 04003KT 340V100 2500 BR BKN002 BKN010 18/17 Q1017 NOSIG
TAF AMD LEAS 250911Z 2509/2609 VRB05KT 8000 FEW005 SCT015 TX20/2514Z TN16/2606Z 
     TEMPO 2509/2512 3000 BR BKN010 
     TEMPO 2509/2512 1500 BCFG BKN002 BKN005 BKN010 
     TEMPO 2512/2518 06010KT 
     TEMPO 2516/2606 3000 BR BCFG BKN005 
     TEMPO 2518/2606 1500 BCFG BKN003 
     PROB30 
     TEMPO 2519/2524 0350 FG VV001
       
LEMD 251100Z 17007KT 110V220 CAVOK 29/12 Q1017 NOSIG
TAF LEMD 251100Z 2512/2618 20010KT CAVOK TX38/2616Z TN20/2605Z 
     PROB40 
     TEMPO 2512/2518 20010G22KT 
     TEMPO 2518/2523 VRB04KT 
     PROB40 
     TEMPO 2523/2607 14010KT 
     TEMPO 2613/2618 20015G25KT
       
LEBL 251100Z 07014KT 030V100 CAVOK 27/17 Q1018 NOSIG
TAF LEBL 251100Z 2512/2612 07015KT 9999 FEW025 TX27/2512Z TN22/2606Z 
     TEMPO 2522/2606 04005KT
       
LEBB 251100Z 30006KT 260V350 9999 FEW020 23/18 Q1017 NOSIG
TAF LEBB 251100Z 2512/2612 VRB05KT 9999 FEW025 TX31/2612Z TN15/2605Z 
     TEMPO 2512/2518 02010KT 
     TEMPO 2512/2518 30010KT 
     TEMPO 2600/2606 3000 BR BCFG 
     PROB30 
     TEMPO 2604/2606 0800 BCFG BKN003
       
LEBG 251100Z 16007KT 120V210 CAVOK 25/12 Q1018
TAF LEBG 251100Z 2512/2521 20010KT CAVOK 
     BECMG 2519/2521 04012KT
       
LEBA 251100Z 27004KT 190V360 CAVOK 28/15 Q1015
TAF LEBA 251100Z 2512/2521 25008KT CAVOK
       
LEVS 251100Z 15005KT 030V200 CAVOK 29/13 Q1018
TAF LEVS 251100Z 2512/2521 20008KT CAVOK
       
GCFV 251100Z 15006KT 110V190 9999 SCT024 BKN029 24/20 Q1018
TAF GCFV 250800Z 2509/2609 11010KT 9999 SCT025 TX27/2514Z TN21/2606Z 
     PROB30 
     TEMPO 2509/2510 02005KT 
     BECMG 2518/2520 32005KT
       
LEGT 251100Z 15008KT 110V200 CAVOK 30/13 Q1017
TAF LEGT 251100Z 2512/2521 20008KT CAVOK
       
LEGE 251100Z 01006KT CAVOK 30/14 Q1018
TAF LEGE 251100Z 2512/2612 12010KT CAVOK TX35/2512Z TN19/2606Z 
     BECMG 2519/2521 34005KT 
     BECMG 2610/2612 13010KT
       
GCLP 251100Z 02014KT 350V060 9999 FEW020 BKN040 26/20 Q1018 NOSIG
TAF GCLP 250800Z 2509/2609 06011KT 9999 SCT025 TX26/2514Z TN20/2606Z 
     PROB30 
     TEMPO 2511/2515 12007KT 
     BECMG 2518/2520 36012KT
       
LEGR 251100Z VRB01KT CAVOK 31/12 Q1016
TAF LEGR 250800Z 2509/2609 VRB02KT CAVOK TX38/2515Z TN17/2605Z 
     BECMG 2512/2515 29010KT 
     BECMG 2520/2522 VRB02KT
       
GCHI 251100Z 36009KT 330V050 9999 FEW020 SCT030 24/19 Q1019
TAF GCHI 250800Z 2509/2609 35014KT 9999 SCT025 TX26/2514Z TN20/2606Z
       
LEIB 251100Z 19005KT 140V270 9999 BKN021 26/20 Q1016 NOSIG
TAF LEIB 250800Z 2509/2609 VRB04KT 9999 BKN018 TX28/2512Z TN21/2605Z 
     PROB40 
     TEMPO 2600/2605 3000 BR BKN005
       
LEJR 251130Z 22006KT 170V280 CAVOK 27/16 Q1016
TAF LEJR 251100Z 2512/2612 25010KT CAVOK TX30/2514Z TN17/2606Z 
     BECMG 2520/2522 19005KT 
     PROB30 
     TEMPO 2602/2608 3000 BR BKN010 
     BECMG 2610/2612 26010KT
       
GCGM 251100Z 24008KT 200V280 9999 FEW015 23/19 Q1019 RMK R09/24006KT 190V290 ARP/24007KT 210V270
TAF GCGM 250800Z 2509/2609 20007KT 9999 SCT025 TX26/2514Z TN19/2606Z
       
GCLA 251100Z 04009KT 350V080 9999 FEW030 BKN038 24/18 Q1018
TAF GCLA 250800Z 2509/2609 03010KT 9999 SCT025 TX26/2514Z TN20/2606Z 
     BECMG 2519/2521 30005KT
       
GCRR 251100Z 20008KT 160V230 9999 FEW016 BKN035 24/21 Q1017
TAF GCRR 250800Z 2509/2609 15010KT 9999 SCT025 TX28/2514Z TN20/2606Z 
     PROB30 
     TEMPO 2509/2511 VRB03KT 
     BECMG 2518/2520 31004KT
       
LELN 251100Z 09004KT 010V140 9999 BKN015 OVC022 18/14 Q1019
TAF LELN 251100Z 2512/2521 VRB05KT 9999 SCT020 
     PROB30 
     TEMPO 2512/2518 RA BKN014
       
LEMG 251100Z 12009KT 090V150 CAVOK 24/19 Q1015 NOSIG
TAF LEMG 251100Z 2512/2612 13010KT CAVOK TX28/2513Z TN20/2606Z 
     BECMG 2519/2521 VRB02KT 
     PROB40 
     TEMPO 2520/2606 3000 BR BKN005 
     BECMG 2607/2609 13010KT
       
GEML 251100Z 05005KT 010V120 CAVOK 25/19 Q1016
TAF GEML 250800Z 2509/2609 05005KT 9999 FEW010 SCT018 TX28/2513Z TN20/2605Z 
     PROB40 
     TEMPO 2600/2609 3000 BR BKN010
       
LEMH 251100Z 13017KT CAVOK 27/20 Q1017
TAF LEMH 250800Z 2509/2609 12015KT 9999 FEW015 TX29/2512Z TN20/2605Z 
     PROB40 
     TEMPO 2509/2514 12015G25KT 
     BECMG 2600/2602 05005KT
       
LEMO 251100Z VRB02KT CAVOK 28/16 Q1016 NOSIG
TAF LEMO 251100Z 2512/2521 VRB02KT CAVOK 
     BECMG 2512/2514 26010KT
       
LEPP 251100Z 05002KT CAVOK 27/15 Q1017
TAF LEPP 250800Z 2509/2609 15010KT 9999 FEW030 TX36/2516Z TN22/2602Z 
     TEMPO 2518/2523 30015KT 
     BECMG 2522/2524 VRB05KT 
     BECMG 2606/2608 15012KT
       
LERS 251100Z 11013KT 040V160 CAVOK 27/19 Q1017
TAF LERS 250800Z 2509/2609 10012KT 9999 FEW020 TX29/2512Z TN21/2605Z 
     BECMG 2521/2523 03005KT
       
LERT 251100Z 22007KT 9999 FEW012 23/15 Q1016 NOSIG
TAF LERT 251100Z 2512/2521 24009KT CAVOK
       
LESA 251100Z 29006KT 260V330 9999 FEW035 SCT048 24/14 Q1018
TAF LESA 251100Z 2512/2612 25010KT 9999 SCT045 TX30/2515Z TN16/2605Z 
     BECMG 2518/2520 VRB04KT 
     BECMG 2608/2610 22012KT
       
LESO 251100Z 03007KT 350V060 CAVOK 23/19 Q1017
TAF LESO 251100Z 2512/2612 VRB05KT CAVOK TX34/2612Z TN17/2605Z 
     BECMG 2518/2520 24010KT 
     PROB30 
     TEMPO 2520/2524 3000 BR 
     PROB40 
     TEMPO 2600/2606 3000 BR 
     BECMG 2604/2608 04010KT
       
LEXJ 251100Z 05005KT 010V110 9999 FEW012 OVC020 20/18 Q1017
TAF LEXJ 250800Z 2509/2609 VRB05KT 9999 FEW010 SCT025 TX22/2514Z TN16/2605Z 
     TEMPO 2509/2517 04010KT BKN012 
     PROB40 
     TEMPO 2600/2606 3000 BR
       
LEST 251100Z VRB02KT 9999 FEW040 21/10 Q1017 NOSIG
TAF LEST 251100Z 2512/2612 VRB05KT 9999 FEW030 TX23/2514Z TN15/2605Z 
     PROB40 
     TEMPO 2512/2516 24010KT 
     TEMPO 2516/2520 01010KT 
     TEMPO 2521/2604 3000 RA SHRA SCT025TCU 
     TEMPO 2522/2608 3000 BR
       
LEZL 251100Z 23006KT 160V280 CAVOK 29/17 Q1015 NOSIG
TAF LEZL 250800Z 2509/2609 21008KT CAVOK TX34/2515Z TN20/2607Z
       
LESB 251100Z AUTO 21010KT CAVOK 27/20 Q1017
LEBZ 251100Z 05004KT CAVOK 27/13 Q1015
TAF LEBZ 251100Z 2512/2612 VRB02KT CAVOK TX34/2515Z TN17/2606Z 
     BECMG 2512/2514 29010KT
       
GCXO 251100Z 30007KT 280V340 3200 0700NW PRFG OVC002 18/18 Q1020 NOSIG
TAF AMD GCXO 250933Z 2509/2609 31010KT 3000 BCFG OVC002 TX23/2514Z TN15/2606Z 
     PROB40 
     TEMPO 2509/2513 1000 DZ BCFG 
     BECMG 2513/2515 9999 NSW BKN006 
     PROB40 
     TEMPO 2518/2609 3000 BCFG BKN003
       
GCTS 251100Z 15005KT 100V190 9999 FEW020 BKN035 24/20 Q1018 NOSIG
TAF GCTS 250800Z 2509/2609 18010KT 9999 BKN030 TX27/2514Z TN19/2606Z 
     PROB40 
     TEMPO 2509/2510 09005KT 
     BECMG 2519/2521 05007KT
       
LETO 251100Z 21007KT 150V280 CAVOK 30/13 Q1017 NOSIG
TAF LETO 251100Z 2512/2612 20010KT CAVOK TX38/2516Z TN20/2605Z 
     TEMPO 2518/2523 VRB04KT 
     PROB40 
     TEMPO 2523/2607 14010KT
       
LEVC 251100Z VRB03KT 9999 FEW025 BKN030 27/19 Q1017 NOSIG
TAF LEVC 251100Z 2512/2612 08010KT 9999 SCT020 TX30/2512Z TN20/2606Z 
     BECMG 2520/2522 27003KT 
     PROB40 
     TEMPO 2522/2606 4500 BR BKN010 
     BECMG 2608/2610 08010KT
       
LEVD 251100Z 18005KT 9999 SCT048 25/11 Q1018
TAF LEVD 251100Z 2512/2612 VRB05KT CAVOK TX31/2515Z TN16/2605Z 
     PROB30 
     TEMPO 2520/2524 04010KT 
     BECMG 2608/2610 18012KT
       
LEVX 251100Z 26006KT 230V330 CAVOK 22/12 Q1017 NOSIG
TAF LEVX 251100Z 2512/2612 VRB05KT 9999 FEW025 TX23/2514Z TN15/2605Z 
     TEMPO 2512/2519 27010KT 
     PROB40 
     TEMPO 2522/2606 3000 RA SHRA SCT025TCU 
     PROB40 
     TEMPO 2600/2610 3000 BR BCFG 
     PROB30 
     TEMPO 2608/2612 3000 RA SHRA BKN010 SCT025TCU
       
LEVT 251100Z 15003KT CAVOK 26/15 Q1017
TAF LEVT 251100Z 2512/2612 VRB05KT CAVOK TX35/2612Z TN17/2604Z 
     BECMG 2512/2514 01010KT 
     TEMPO 2514/2520 01015G25KT 
     BECMG 2520/2522 VRB05KT 
     PROB30 
     TEMPO 2520/2602 3000 BR BCFG 
     BECMG 2606/2608 14010KT 
     PROB30 
     TEMPO 2608/2612 14015G25KT
       
LEZG 251100Z 09007KT 050V140 9999 FEW060 29/16 Q1016
TAF LEZG 251100Z 2512/2612 11014KT CAVOK TX38/2515Z TN20/2606Z 
     PROB30 
     TEMPO 2512/2517 FEW100CB 
     TEMPO 2602/2606 14004KT 
     PROB40 
     TEMPO 2610/2612 11015G25KT